Terminal Aerodrome Forecast
Issued by NWS Pittsburgh, PA

Current Version | Previous Version | Graphics & Text | Print | Product List | Glossary On
Versions: 1 2 3 4 5 6 7 8 9 10 11 12 13 14 15 16 17 18 19 20 21 22 23 24 25 26 27 28 29 30 31 32 33 34
000
FTUS41 KPBZ 291100
TAFPIT
TAF
KPIT 291129Z 2912/3018 13006KT P6SM BKN100
     FM291700 18010G16KT 4SM -SHRASN OVC025
     FM292000 20010G18KT 2SM -SHRA BR OVC008
     FM300300 26012G22KT 2SM -SHSN OVC008
     FM301000 30013G24KT 5SM -SHSN OVC010=

USA.gov is the U.S. government's official web portal to all federal, state and local government web resources and services.